createdAt,value
2023-01-30T00:01:17.920Z,61.54
2023-01-30T00:03:45.828Z,61.49
2023-01-30T00:06:13.983Z,61.66
2023-01-30T00:08:41.679Z,61.45
2023-01-30T00:11:11.962Z,61.49
2023-01-30T00:13:40.347Z,61.78
2023-01-30T00:16:09.809Z,61.98
2023-01-30T00:18:38.317Z,62.01
2023-01-30T00:21:08.230Z,62.26
2023-01-30T00:23:36.869Z,62.34
2023-01-30T00:26:05.891Z,62.42
2023-01-30T00:28:33.944Z,62.40
2023-01-30T00:31:02.096Z,62.62
2023-01-30T00:33:30.399Z,62.47
2023-01-30T00:35:58.142Z,62.47
2023-01-30T00:38:25.992Z,62.19
2023-01-30T00:40:53.855Z,61.81
2023-01-30T00:43:40.983Z,61.71
2023-01-30T00:46:39.408Z,61.66
2023-01-30T00:49:07.152Z,61.47
2023-01-30T00:51:35.661Z,61.20
2023-01-30T00:54:03.973Z,61.20
2023-01-30T00:56:32.521Z,61.31
2023-01-30T00:59:00.435Z,61.06
2023-01-30T01:01:28.192Z,61.13
2023-01-30T01:03:55.950Z,61.14
2023-01-30T01:06:23.608Z,61.04
2023-01-30T01:08:51.459Z,61.28
2023-01-30T01:11:24.655Z,61.53
2023-01-30T01:13:54.950Z,61.55
2023-01-30T01:16:23.255Z,61.03
2023-01-30T01:18:51.566Z,60.93
2023-01-30T01:21:20.766Z,60.89
2023-01-30T01:23:52.523Z,60.89
2023-01-30T01:26:20.639Z,60.59
2023-01-30T01:28:48.421Z,60.66
2023-01-30T01:31:17.227Z,60.41
2023-01-30T01:33:45.085Z,60.34
2023-01-30T01:36:20.030Z,60.52
2023-01-30T01:38:57.411Z,60.49
2023-01-30T01:41:25.383Z,60.64
2023-01-30T01:44:06.617Z,60.63
2023-01-30T01:46:35.729Z,60.59
2023-01-30T01:49:07.698Z,60.39
2023-01-30T01:51:40.124Z,60.64
2023-01-30T01:54:07.758Z,60.48
2023-01-30T01:56:36.965Z,60.67
2023-01-30T01:59:12.781Z,60.79
2023-01-30T02:01:40.431Z,60.63
2023-01-30T02:04:11.055Z,60.39
2023-01-30T02:06:39.864Z,60.41
2023-01-30T02:09:08.854Z,60.29
2023-01-30T02:11:47.068Z,60.05
2023-01-30T02:14:15.812Z,60.11
2023-01-30T02:16:44.735Z,60.12
2023-01-30T02:19:38.059Z,60.18
2023-01-30T02:22:24.640Z,60.31
2023-01-30T02:25:04.379Z,60.27
2023-01-30T02:28:10.619Z,60.18
2023-01-30T02:30:41.071Z,60.22
2023-01-30T02:33:39.833Z,60.36
2023-01-30T02:36:13.335Z,60.60
2023-01-30T02:38:59.444Z,60.47
2023-01-30T02:41:30.632Z,60.50
2023-01-30T02:44:00.313Z,60.50
2023-01-30T02:46:59.189Z,60.37
2023-01-30T02:49:37.870Z,60.16
2023-01-30T02:52:08.613Z,60.06
2023-01-30T02:54:36.902Z,60.06
2023-01-30T02:57:23.273Z,60.27
2023-01-30T02:59:59.315Z,60.28
2023-01-30T03:03:07.133Z,60.21
2023-01-30T03:05:39.591Z,60.15
2023-01-30T03:08:29.054Z,60.02
2023-01-30T03:11:06.052Z,59.99
2023-01-30T03:14:03.218Z,60.11
2023-01-30T03:16:38.192Z,60.08
2023-01-30T03:19:10.801Z,60.04
2023-01-30T03:21:44.757Z,60.15
2023-01-30T03:24:13.496Z,60.01
2023-01-30T03:26:52.492Z,59.94
2023-01-30T03:29:20.774Z,59.97
2023-01-30T03:36:07.837Z,60.19
2023-01-30T03:38:36.930Z,60.26
2023-01-30T03:41:05.431Z,60.45
2023-01-30T03:43:33.714Z,60.42
2023-01-30T03:46:03.069Z,60.22
2023-01-30T03:48:31.147Z,60.18
2023-01-30T03:50:59.057Z,59.94
2023-01-30T03:53:26.750Z,59.99
2023-01-30T03:55:55.297Z,59.83
2023-01-30T03:58:26.528Z,59.61
2023-01-30T04:00:57.439Z,59.57
2023-01-30T04:03:26.481Z,59.63
2023-01-30T04:05:56.511Z,59.73
2023-01-30T04:08:24.170Z,59.57
2023-01-30T04:10:51.910Z,59.17
2023-01-30T04:13:19.750Z,59.16
2023-01-30T04:15:47.775Z,58.96
2023-01-30T04:18:21.240Z,59.17
2023-01-30T04:20:58.024Z,59.23
2023-01-30T04:23:31.392Z,59.14
2023-01-30T04:25:59.172Z,59.31
2023-01-30T04:28:27.853Z,59.26
2023-01-30T04:30:55.591Z,59.34
2023-01-30T04:33:47.348Z,59.37
2023-01-30T04:36:15.190Z,59.39
2023-01-30T04:38:43.579Z,59.18
2023-01-30T04:41:11.460Z,59.02
2023-01-30T04:43:41.333Z,58.96
2023-01-30T04:46:21.949Z,58.93
2023-01-30T04:48:49.755Z,58.91
2023-01-30T04:51:17.709Z,58.84
2023-01-30T04:53:48.976Z,59.01
2023-01-30T04:56:17.119Z,59.03
2023-01-30T04:58:45.376Z,59.10
2023-01-30T05:01:47.578Z,59.02
2023-01-30T05:04:15.443Z,59.14
2023-01-30T05:06:43.506Z,59.25
2023-01-30T05:09:12.803Z,59.24
2023-01-30T05:11:41.064Z,59.45
2023-01-30T05:14:09.046Z,59.44
2023-01-30T05:16:40.623Z,59.40
2023-01-30T05:19:10.743Z,59.41
2023-01-30T05:21:38.411Z,59.52
2023-01-30T05:24:06.700Z,59.37
2023-01-30T05:26:34.496Z,59.49
2023-01-30T05:29:02.781Z,59.56
2023-01-30T05:31:30.469Z,59.40
2023-01-30T05:33:58.346Z,59.65
2023-01-30T05:36:26.054Z,59.92
2023-01-30T05:38:54.020Z,60.10
2023-01-30T05:41:21.773Z,60.17
2023-01-30T05:43:50.783Z,60.54
2023-01-30T05:46:18.596Z,60.86
2023-01-30T05:48:46.469Z,61.02
2023-01-30T05:51:21.471Z,61.29
2023-01-30T05:53:49.491Z,61.41
2023-01-30T05:56:18.490Z,61.68
2023-01-30T05:58:53.951Z,61.80
2023-01-30T06:01:23.174Z,61.76
2023-01-30T06:03:51.344Z,61.79
2023-01-30T06:06:19.569Z,61.71
2023-01-30T06:08:47.827Z,61.88
2023-01-30T06:11:16.893Z,61.96
2023-01-30T06:13:44.789Z,62.07
2023-01-30T06:16:14.281Z,62.02
2023-01-30T06:18:42.081Z,62.15
2023-01-30T06:21:10.094Z,62.15
2023-01-30T06:23:38.937Z,62.16
2023-01-30T06:26:09.053Z,62.31
2023-01-30T06:28:37.447Z,62.59
2023-01-30T06:31:08.713Z,62.91
2023-01-30T06:33:36.886Z,63.04
2023-01-30T06:36:04.782Z,63.28
2023-01-30T06:38:32.524Z,63.27
2023-01-30T06:41:00.228Z,63.39
2023-01-30T06:43:27.915Z,63.38
2023-01-30T06:45:55.605Z,63.44
2023-01-30T06:48:23.396Z,63.61
2023-01-30T06:50:51.138Z,64.15
2023-01-30T06:53:18.804Z,64.88
2023-01-30T06:55:46.681Z,65.13
2023-01-30T06:58:15.025Z,65.72
2023-01-30T07:00:43.364Z,65.85
2023-01-30T07:03:16.507Z,65.95
2023-01-30T07:05:45.670Z,66.14
2023-01-30T07:08:14.089Z,66.23
2023-01-30T07:10:42.344Z,65.75
2023-01-30T07:13:10.257Z,65.65
2023-01-30T07:15:38.004Z,65.90
2023-01-30T07:18:05.875Z,65.90
2023-01-30T07:20:34.059Z,66.64
2023-01-30T07:23:01.933Z,67.49
2023-01-30T07:25:30.249Z,67.05
2023-01-30T07:28:00.184Z,66.96
2023-01-30T07:30:30.070Z,66.66
2023-01-30T07:32:59.457Z,66.23
2023-01-30T07:35:29.543Z,66.14
2023-01-30T07:37:57.300Z,65.91
2023-01-30T07:40:25.720Z,65.91
2023-01-30T07:43:13.513Z,65.88
2023-01-30T07:45:46.581Z,65.84
2023-01-30T07:48:16.678Z,65.95
2023-01-30T07:50:45.238Z,66.08
2023-01-30T07:53:15.852Z,66.33
2023-01-30T07:55:43.778Z,66.37
2023-01-30T07:58:13.905Z,66.37
2023-01-30T08:00:42.656Z,66.15
2023-01-30T08:03:17.073Z,66.39
2023-01-30T08:05:48.054Z,66.31
2023-01-30T08:08:15.866Z,66.31
2023-01-30T08:10:44.634Z,66.43
2023-01-30T08:13:12.343Z,66.54
2023-01-30T08:15:40.057Z,66.45
2023-01-30T08:18:07.754Z,66.66
2023-01-30T08:20:36.563Z,66.68
2023-01-30T08:23:04.885Z,66.72
2023-01-30T08:25:33.023Z,66.76
2023-01-30T08:28:00.816Z,66.87
2023-01-30T08:30:30.355Z,66.89
2023-01-30T08:32:58.471Z,67.13
2023-01-30T08:35:26.503Z,67.28
2023-01-30T08:37:54.274Z,67.38
2023-01-30T08:40:22.027Z,67.57
2023-01-30T08:42:49.689Z,67.74
2023-01-30T08:45:17.424Z,67.80
2023-01-30T08:47:45.225Z,68.50
2023-01-30T08:50:12.931Z,68.66
2023-01-30T08:52:40.787Z,68.68
2023-01-30T08:55:10.343Z,68.98
2023-01-30T08:57:38.038Z,69.10
2023-01-30T14:02:36.475Z,71.54
2023-01-30T14:05:06.064Z,71.46
2023-01-30T14:07:40.296Z,71.14
2023-01-30T14:10:10.793Z,71.10
2023-01-30T14:12:41.530Z,70.63
2023-01-30T14:15:32.070Z,69.89
2023-01-30T14:18:08.570Z,69.47
2023-01-30T14:20:39.029Z,69.24
2023-01-30T14:23:20.471Z,69.14
2023-01-30T14:25:53.055Z,69.67
2023-01-30T14:28:21.019Z,69.65
2023-01-30T14:30:53.235Z,69.21
2023-01-30T14:33:20.853Z,69.06
2023-01-30T14:36:00.955Z,68.98
2023-01-30T14:38:30.767Z,68.43
2023-01-30T14:40:58.484Z,68.27
2023-01-30T14:43:26.257Z,68.15
2023-01-30T14:46:00.815Z,67.72
2023-01-30T14:48:32.191Z,67.87
2023-01-30T14:51:34.395Z,67.61
2023-01-30T14:54:06.593Z,67.47
2023-01-30T14:57:02.255Z,66.91
2023-01-30T14:59:36.992Z,66.68
2023-01-30T15:02:14.589Z,66.49
2023-01-30T15:04:52.944Z,66.47
2023-01-30T15:07:53.187Z,66.41
2023-01-30T15:10:33.953Z,64.44
2023-01-30T15:13:40.396Z,64.46
2023-01-30T15:16:23.492Z,65.07
2023-01-30T15:19:02.687Z,65.43
2023-01-30T15:22:12.348Z,65.55
2023-01-30T15:24:55.050Z,65.66
2023-01-30T15:27:24.758Z,65.71
2023-01-30T15:30:29.977Z,65.96
2023-01-30T15:33:29.211Z,66.03
2023-01-30T15:35:58.487Z,66.52
2023-01-30T15:38:33.237Z,66.73
2023-01-30T15:41:03.477Z,66.78
2023-01-30T15:44:07.325Z,66.86
2023-01-30T15:47:12.703Z,66.88
2023-01-30T15:50:02.635Z,66.75
2023-01-30T15:52:40.063Z,66.92
2023-01-30T15:55:22.519Z,67.11
2023-01-30T15:57:51.454Z,67.05
2023-01-30T16:00:32.324Z,67.16
2023-01-30T16:03:05.311Z,67.24
2023-01-30T16:05:33.146Z,66.97
2023-01-30T16:08:10.623Z,66.81
2023-01-30T16:10:47.559Z,66.75
2023-01-30T16:13:15.697Z,66.49
2023-01-30T16:16:14.357Z,66.15
2023-01-30T16:18:48.375Z,66.20
2023-01-30T16:21:22.543Z,66.12
2023-01-30T16:24:01.711Z,65.79
2023-01-30T16:26:36.946Z,65.53
2023-01-30T16:29:19.353Z,65.98
2023-01-30T16:31:49.596Z,65.89
2023-01-30T16:34:39.703Z,65.81
2023-01-30T16:37:31.419Z,66.11
2023-01-30T16:40:11.616Z,66.10
2023-01-30T16:42:40.113Z,66.16
2023-01-30T16:45:10.752Z,66.17
2023-01-30T16:47:39.108Z,66.07
2023-01-30T16:50:18.425Z,66.30
2023-01-30T16:52:51.682Z,66.38
2023-01-30T16:55:27.650Z,66.62
2023-01-30T16:57:58.860Z,66.79
2023-01-30T17:00:33.176Z,67.15
2023-01-30T17:03:04.525Z,67.36
2023-01-30T17:05:43.645Z,67.64
2023-01-30T17:08:47.153Z,68.71
2023-01-30T17:11:31.817Z,68.89
2023-01-30T17:14:19.118Z,68.93
2023-01-30T17:17:08.948Z,69.04
2023-01-30T17:19:37.305Z,69.21
2023-01-30T17:22:09.138Z,69.52
2023-01-30T17:43:44.566Z,70.71
2023-01-30T17:47:11.815Z,73.72
2023-01-30T17:49:56.791Z,74.16
2023-01-30T17:52:46.127Z,74.39
2023-01-30T17:58:52.359Z,74.77
2023-01-30T18:01:33.004Z,75.19
2023-01-30T18:04:28.273Z,74.71
2023-01-30T18:22:44.435Z,71.75
2023-01-30T18:25:24.484Z,71.25
2023-01-30T18:28:38.981Z,71.37
2023-01-30T18:32:06.092Z,71.47
2023-01-30T18:34:40.719Z,71.58
2023-01-30T18:37:13.471Z,71.82
2023-01-30T18:39:42.936Z,72.18
2023-01-30T18:42:17.700Z,72.31
2023-01-30T18:44:51.821Z,72.52
2023-01-30T18:47:21.709Z,72.83
2023-01-30T18:49:53.220Z,72.98
2023-01-30T18:52:42.231Z,73.21
2023-01-30T18:55:29.958Z,73.39
2023-01-30T18:58:01.478Z,73.35
2023-01-30T19:00:46.457Z,73.48
2023-01-30T19:04:00.398Z,73.63
2023-01-30T19:07:27.145Z,73.83
2023-01-30T19:09:59.706Z,74.42
2023-01-30T19:19:52.435Z,74.69
2023-01-30T19:24:05.059Z,74.66
2023-01-30T19:56:37.410Z,72.11
2023-01-30T19:59:05.510Z,72.13
2023-01-30T20:01:37.018Z,72.22
2023-01-30T20:04:05.323Z,72.60
2023-01-30T20:06:34.746Z,73.24
2023-01-30T20:09:07.669Z,73.73
2023-01-30T20:11:36.920Z,74.29
2023-01-30T20:14:06.884Z,74.82
2023-01-30T20:16:35.760Z,75.29
2023-01-30T20:19:09.155Z,75.50
2023-01-30T20:21:36.903Z,75.72
2023-01-30T20:24:05.319Z,76.10
2023-01-30T20:26:35.865Z,76.21
2023-01-30T20:29:04.460Z,76.39
2023-01-30T20:31:34.556Z,76.48
2023-01-30T20:34:04.112Z,76.75
2023-01-30T20:36:32.361Z,76.96
2023-01-30T20:39:04.096Z,77.09
2023-01-30T20:41:33.484Z,77.29
2023-01-30T20:44:01.589Z,77.17
2023-01-30T20:46:32.076Z,77.33
2023-01-30T20:49:01.455Z,77.16
2023-01-30T20:51:31.465Z,77.20
2023-01-30T20:54:05.424Z,76.82
2023-01-30T20:56:40.106Z,76.79
2023-01-30T20:59:08.956Z,76.64
2023-01-30T21:01:37.442Z,76.39
2023-01-30T21:04:07.486Z,76.51
2023-01-30T21:06:41.089Z,76.31
2023-01-30T21:09:15.506Z,76.00
2023-01-30T21:11:43.983Z,75.79
2023-01-30T21:14:11.988Z,75.67
2023-01-30T21:16:39.991Z,75.80
2023-01-30T21:19:13.803Z,75.60
2023-01-30T21:21:50.571Z,75.25
2023-01-30T21:24:27.437Z,75.19
2023-01-30T21:26:55.713Z,75.02
2023-01-30T21:29:25.327Z,75.01
2023-01-30T21:31:54.146Z,74.98
2023-01-30T21:34:22.497Z,74.76
2023-01-30T21:37:09.433Z,74.63
2023-01-30T21:39:55.978Z,74.48
2023-01-30T21:42:42.439Z,73.96
2023-01-30T21:45:10.414Z,74.14
2023-01-30T21:47:38.843Z,73.57
2023-01-30T21:50:07.361Z,73.34
2023-01-30T21:52:35.039Z,73.20
2023-01-30T21:55:02.751Z,72.65
2023-01-30T21:57:30.496Z,72.69
2023-01-30T21:59:58.161Z,72.53
2023-01-30T22:02:25.988Z,72.09
2023-01-30T22:04:53.684Z,71.98
2023-01-30T22:07:21.444Z,71.77
2023-01-30T22:09:49.205Z,71.77
2023-01-30T22:12:16.972Z,71.50
2023-01-30T22:14:44.625Z,71.55
2023-01-30T22:17:12.344Z,71.53
2023-01-30T22:19:40.759Z,71.77
2023-01-30T22:22:08.555Z,71.57
2023-01-30T22:24:36.417Z,71.21
2023-01-30T22:27:04.391Z,70.46
2023-01-30T22:29:32.384Z,70.51
2023-01-30T22:32:00.108Z,70.80
2023-01-30T22:34:27.868Z,70.70
2023-01-30T22:36:55.615Z,70.70
2023-01-30T22:39:23.540Z,70.72
2023-01-30T22:41:51.255Z,70.88
2023-01-30T22:44:18.995Z,71.07
2023-01-30T22:46:46.707Z,71.00
2023-01-30T22:49:14.445Z,71.43
2023-01-30T22:51:43.603Z,71.65
2023-01-30T22:54:16.487Z,71.84
2023-01-30T22:56:46.785Z,72.46
2023-01-30T22:59:15.143Z,72.56
2023-01-30T23:01:45.475Z,72.70
2023-01-30T23:04:18.610Z,73.04
2023-01-30T23:06:47.937Z,73.20
2023-01-30T23:09:19.414Z,73.11
2023-01-30T23:12:11.801Z,73.28
2023-01-30T23:14:40.501Z,73.27
2023-01-30T23:17:27.471Z,73.54
2023-01-30T23:19:55.356Z,73.49
2023-01-30T23:22:23.343Z,73.33
2023-01-30T23:24:51.510Z,73.36
2023-01-30T23:27:20.413Z,73.10
2023-01-30T23:29:48.289Z,73.14
2023-01-30T23:32:19.879Z,73.07
2023-01-30T23:34:47.847Z,73.04
2023-01-30T23:37:16.321Z,72.90
2023-01-30T23:39:44.586Z,72.77
2023-01-30T23:42:12.304Z,72.43
2023-01-30T23:44:40.199Z,72.23
2023-01-30T23:47:07.891Z,72.23
2023-01-30T23:49:35.567Z,71.84
2023-01-30T23:52:03.306Z,71.60
2023-01-30T23:54:30.996Z,71.37
2023-01-30T23:56:58.660Z,71.26
2023-01-30T23:59:26.322Z,71.06
